Time;durP1;ratioP1;P1;durP2;ratioP2;P2;SDS_P1;SDS_P2;PMS_P1;PMS_P2;Temp;Humidity;BMP_temperature;BMP_pressure;BME280_temperature;BME280_humidity;BME280_pressure;Samples;Min_cycle;Max_cycle;Signal;HPM_P1;HPM_P2
2022/08/30 00:01:23;;;;;;;16.15;7.18;;;;;;;;;;4995596;28;20512;-75
2022/08/30 00:04:27;;;;;;;12.30;6.65;;;;;;;;;;4994953;28;20038;-74
2022/08/30 00:07:31;;;;;;;14.80;7.78;;;;;;;;;;4995200;28;20042;-75
2022/08/30 00:10:37;;;;;;;17.17;7.40;;;;;;;;;;4995061;28;20050;-75
2022/08/30 00:13:43;;;;;;;11.95;7.18;;;;;;;;;;4994872;28;20292;-75
2022/08/30 00:16:47;;;;;;;9.85;7.30;;;;;;;;;;4994704;28;20043;-74
2022/08/30 00:19:52;;;;;;;12.45;7.05;;;;;;;;;;4994741;28;20038;-74
2022/08/30 00:22:56;;;;;;;7.68;6.57;;;;;;;;;;4994614;28;20042;-74
2022/08/30 00:26:01;;;;;;;8.98;6.78;;;;;;;;;;4994607;28;20042;-75
2022/08/30 00:29:05;;;;;;;10.43;6.85;;;;;;;;;;4994362;28;20637;-75
2022/08/30 00:32:11;;;;;;;13.38;7.78;;;;;;;;;;4994755;28;20037;-75
2022/08/30 00:35:19;;;;;;;12.20;7.35;;;;;;;;;;4994139;28;20669;-74
2022/08/30 00:38:23;;;;;;;12.02;7.00;;;;;;;;;;4994551;28;20057;-75
2022/08/30 00:41:27;;;;;;;13.52;7.78;;;;;;;;;;4994306;28;20489;-75
2022/08/30 00:44:32;;;;;;;14.85;7.55;;;;;;;;;;4994264;28;20034;-75
2022/08/30 00:47:36;;;;;;;13.77;7.55;;;;;;;;;;5004391;28;20054;-75
2022/08/30 00:50:42;;;;;;;16.95;7.55;;;;;;;;;;4993913;28;20034;-76
2022/08/30 00:53:48;;;;;;;14.82;7.95;;;;;;;;;;4993070;28;20132;-75
2022/08/30 00:56:53;;;;;;;17.75;8.57;;;;;;;;;;4993762;28;20053;-75
2022/08/30 00:59:57;;;;;;;16.75;7.65;;;;;;;;;;4993676;28;20046;-75
2022/08/30 01:03:02;;;;;;;25.05;7.97;;;;;;;;;;5004091;28;20511;-75
2022/08/30 01:06:06;;;;;;;10.93;8.05;;;;;;;;;;4992944;28;20042;-76
2022/08/30 01:09:10;;;;;;;12.23;8.23;;;;;;;;;;4993911;28;20506;-76
2022/08/30 01:12:15;;;;;;;16.40;8.40;;;;;;;;;;4993976;28;20363;-75
2022/08/30 01:15:19;;;;;;;13.45;8.15;;;;;;;;;;4992908;28;20485;-75
2022/08/30 01:18:23;;;;;;;20.13;8.77;;;;;;;;;;4993231;28;20069;-75
2022/08/30 01:21:39;;;;;;;18.55;8.75;;;;;;;;;;4993632;28;20038;-75
2022/08/30 01:24:46;;;;;;;14.63;8.52;;;;;;;;;;4993540;28;20042;-75
2022/08/30 01:27:52;;;;;;;15.13;8.40;;;;;;;;;;4993139;28;20051;-75
2022/08/30 01:30:57;;;;;;;11.63;8.55;;;;;;;;;;4992513;28;20037;-75
2022/08/30 01:34:01;;;;;;;16.60;10.75;;;;;;;;;;4993470;28;20423;-75
2022/08/30 01:37:06;;;;;;;22.80;13.77;;;;;;;;;;4981323;28;20057;-75
2022/08/30 01:40:11;;;;;;;16.40;10.25;;;;;;;;;;4993291;28;20063;-75
2022/08/30 01:43:16;;;;;;;18.73;9.55;;;;;;;;;;4993265;28;20057;-75
2022/08/30 01:46:23;;;;;;;17.02;9.73;;;;;;;;;;4993178;28;20041;-75
2022/08/30 01:49:27;;;;;;;16.17;8.98;;;;;;;;;;4992842;28;20053;-76
2022/08/30 01:52:31;;;;;;;12.45;8.35;;;;;;;;;;4993010;28;20042;-75
2022/08/30 01:55:37;;;;;;;15.57;8.07;;;;;;;;;;4993006;28;20042;-75
2022/08/30 01:58:42;;;;;;;14.07;8.55;;;;;;;;;;4992866;28;20038;-75
2022/08/30 02:01:46;;;;;;;16.20;8.65;;;;;;;;;;4993011;28;20038;-75
2022/08/30 02:04:52;;;;;;;15.52;9.43;;;;;;;;;;4991836;28;20053;-75
2022/08/30 02:07:57;;;;;;;13.32;8.40;;;;;;;;;;4992716;28;20061;-75
2022/08/30 02:11:02;;;;;;;16.15;8.68;;;;;;;;;;4992545;28;20061;-75
2022/08/30 02:14:07;;;;;;;12.75;8.85;;;;;;;;;;4992688;28;20042;-75
2022/08/30 02:17:14;;;;;;;12.07;9.18;;;;;;;;;;4991588;28;20050;-75
2022/08/30 02:20:19;;;;;;;19.30;9.32;;;;;;;;;;4991848;28;20046;-75
2022/08/30 02:23:24;;;;;;;11.98;8.65;;;;;;;;;;4992376;28;20042;-75
2022/08/30 02:26:28;;;;;;;13.65;8.82;;;;;;;;;;5002523;28;20042;-76
2022/08/30 02:29:33;;;;;;;12.30;9.00;;;;;;;;;;4992247;28;20059;-75
2022/08/30 02:32:40;;;;;;;15.18;8.80;;;;;;;;;;4992102;28;20047;-75
2022/08/30 02:35:44;;;;;;;15.02;9.57;;;;;;;;;;4992272;28;20755;-75
2022/08/30 02:38:49;;;;;;;15.10;8.50;;;;;;;;;;4992149;28;20061;-75
2022/08/30 02:41:53;;;;;;;17.42;9.02;;;;;;;;;;4992016;28;20049;-75
2022/08/30 02:44:58;;;;;;;13.38;8.60;;;;;;;;;;4992214;28;20053;-75
2022/08/30 02:48:02;;;;;;;15.35;9.32;;;;;;;;;;4991873;28;20054;-75
2022/08/30 02:51:08;;;;;;;14.45;9.10;;;;;;;;;;4991944;28;20034;-75
2022/08/30 02:54:18;;;;;;;12.48;8.35;;;;;;;;;;4992233;28;20050;-75
2022/08/30 02:57:22;;;;;;;16.95;9.02;;;;;;;;;;4991931;28;20057;-75
2022/08/30 03:00:26;;;;;;;11.75;8.77;;;;;;;;;;4992000;28;20054;-75
2022/08/30 03:03:32;;;;;;;17.33;8.68;;;;;;;;;;4991546;28;20050;-75
2022/08/30 03:06:39;;;;;;;14.90;8.15;;;;;;;;;;4991658;28;20505;-76
2022/08/30 03:09:43;;;;;;;17.98;8.85;;;;;;;;;;5001960;28;20053;-75
2022/08/30 03:12:48;;;;;;;14.15;8.88;;;;;;;;;;4990900;28;20062;-75
2022/08/30 03:15:52;;;;;;;11.82;8.02;;;;;;;;;;4991084;28;20050;-75
2022/08/30 03:18:56;;;;;;;15.75;8.70;;;;;;;;;;4991393;28;20510;-75
2022/08/30 03:22:00;;;;;;;13.50;8.90;;;;;;;;;;4991694;28;20042;-75
2022/08/30 03:25:05;;;;;;;11.52;8.13;;;;;;;;;;4991782;28;20046;-75
2022/08/30 03:28:09;;;;;;;13.88;8.77;;;;;;;;;;4991297;28;20408;-76
2022/08/30 03:31:14;;;;;;;14.93;8.88;;;;;;;;;;5004913;28;20146;-75
2022/08/30 03:34:18;;;;;;;13.02;8.85;;;;;;;;;;4995524;28;20038;-75
2022/08/30 03:37:23;;;;;;;16.27;8.90;;;;;;;;;;4994314;28;20493;-75
2022/08/30 03:40:27;;;;;;;13.05;8.82;;;;;;;;;;5005733;28;20039;-75
2022/08/30 03:43:32;;;;;;;15.57;8.27;;;;;;;;;;4995455;28;20069;-75
2022/08/30 03:46:37;;;;;;;19.10;8.55;;;;;;;;;;4995178;28;20045;-75
2022/08/30 03:49:41;;;;;;;15.10;7.95;;;;;;;;;;4995205;28;20538;-76
2022/08/30 03:52:45;;;;;;;13.50;8.15;;;;;;;;;;4995175;28;20034;-75
2022/08/30 03:55:49;;;;;;;15.38;7.65;;;;;;;;;;4995162;28;20038;-75
2022/08/30 03:58:53;;;;;;;16.20;7.93;;;;;;;;;;5006059;28;20050;-76
2022/08/30 04:01:58;;;;;;;10.20;7.35;;;;;;;;;;4995064;28;20063;-76
2022/08/30 04:05:03;;;;;;;14.57;8.68;;;;;;;;;;4994785;28;20506;-75
2022/08/30 04:08:07;;;;;;;14.50;8.35;;;;;;;;;;4994961;28;20050;-75
2022/08/30 04:11:13;;;;;;;17.27;8.13;;;;;;;;;;5005046;28;20050;-75
2022/08/30 04:14:18;;;;;;;14.45;7.50;;;;;;;;;;4994615;28;20505;-75
2022/08/30 04:17:22;;;;;;;15.32;8.27;;;;;;;;;;4994459;28;20049;-75
2022/08/30 04:20:29;;;;;;;14.95;8.10;;;;;;;;;;4994690;28;20041;-75
2022/08/30 04:23:33;;;;;;;15.35;9.35;;;;;;;;;;4994849;28;20045;-75
2022/08/30 04:26:38;;;;;;;16.10;9.50;;;;;;;;;;4994578;28;20034;-75
2022/08/30 04:29:42;;;;;;;19.63;8.70;;;;;;;;;;4994313;28;20050;-75
2022/08/30 04:32:47;;;;;;;14.20;8.75;;;;;;;;;;4994351;28;20034;-76
2022/08/30 04:35:52;;;;;;;19.02;9.93;;;;;;;;;;4994334;28;20383;-75
2022/08/30 04:38:56;;;;;;;12.75;8.90;;;;;;;;;;4994405;28;20049;-75
2022/08/30 04:42:02;;;;;;;17.88;9.20;;;;;;;;;;4993328;28;20038;-75
2022/08/30 04:45:08;;;;;;;18.92;8.40;;;;;;;;;;4994133;28;20338;-75
2022/08/30 04:48:12;;;;;;;17.17;7.95;;;;;;;;;;4994364;28;20383;-75
2022/08/30 04:51:17;;;;;;;14.95;8.88;;;;;;;;;;4995475;28;20037;-75
2022/08/30 04:54:21;;;;;;;15.77;8.23;;;;;;;;;;4993984;28;20045;-75
2022/08/30 04:57:27;;;;;;;13.55;8.60;;;;;;;;;;4994106;28;20047;-75
2022/08/30 05:00:31;;;;;;;12.73;8.25;;;;;;;;;;4993829;28;20042;-76
2022/08/30 05:03:35;;;;;;;15.77;8.82;;;;;;;;;;4994015;28;20039;-75
2022/08/30 05:06:40;;;;;;;21.10;8.73;;;;;;;;;;4993784;28;20121;-75
2022/08/30 05:09:44;;;;;;;19.27;9.82;;;;;;;;;;4993171;28;20166;-76
2022/08/30 05:12:49;;;;;;;12.25;8.80;;;;;;;;;;4994029;28;20053;-75
2022/08/30 05:15:53;;;;;;;16.27;9.07;;;;;;;;;;4993721;28;20050;-75
2022/08/30 05:18:58;;;;;;;16.67;8.77;;;;;;;;;;4993401;28;20038;-75
2022/08/30 05:22:03;;;;;;;23.30;9.45;;;;;;;;;;4993997;28;20046;-77
2022/08/30 05:25:08;;;;;;;17.40;9.45;;;;;;;;;;4993692;28;20041;-79
2022/08/30 05:28:12;;;;;;;17.55;9.52;;;;;;;;;;4993922;28;20062;-79
2022/08/30 05:31:24;;;;;;;14.00;8.82;;;;;;;;;;4992619;28;20458;-77
2022/08/30 05:34:31;;;;;;;16.73;9.65;;;;;;;;;;4992073;28;20045;-78
2022/08/30 05:37:36;;;;;;;14.10;9.65;;;;;;;;;;4993194;28;20046;-77
2022/08/30 05:40:41;;;;;;;20.25;9.45;;;;;;;;;;4990794;28;20055;-77
2022/08/30 05:43:46;;;;;;;19.38;8.68;;;;;;;;;;4992538;28;20053;-78
2022/08/30 05:46:50;;;;;;;21.27;9.07;;;;;;;;;;4992634;28;20042;-77
2022/08/30 05:49:58;;;;;;;13.45;8.63;;;;;;;;;;4991994;28;20506;-78
2022/08/30 05:53:02;;;;;;;15.60;9.25;;;;;;;;;;4991455;28;20041;-78
2022/08/30 05:56:08;;;;;;;26.83;9.27;;;;;;;;;;4992630;28;20049;-79
2022/08/30 05:59:13;;;;;;;15.30;8.85;;;;;;;;;;4992724;28;20500;-77
2022/08/30 06:02:17;;;;;;;14.63;8.20;;;;;;;;;;4993192;28;20038;-81
2022/08/30 06:05:22;;;;;;;17.33;7.07;;;;;;;;;;4992956;28;20030;-78
2022/08/30 06:08:26;;;;;;;18.70;6.47;;;;;;;;;;4992246;28;20425;-78
2022/08/30 06:11:31;;;;;;;10.98;5.90;;;;;;;;;;4992605;28;20039;-78
2022/08/30 06:14:35;;;;;;;13.65;5.80;;;;;;;;;;4992492;28;20045;-77
2022/08/30 06:17:40;;;;;;;21.38;7.30;;;;;;;;;;4992066;28;20061;-77
2022/08/30 06:20:46;;;;;;;18.52;8.18;;;;;;;;;;4992750;28;20053;-74
2022/08/30 06:23:51;;;;;;;21.40;9.50;;;;;;;;;;4992410;28;20034;-73
2022/08/30 06:26:59;;;;;;;19.45;9.23;;;;;;;;;;4992259;28;20429;-74
2022/08/30 06:30:09;;;;;;;16.67;9.93;;;;;;;;;;4991534;28;20043;-74
2022/08/30 06:33:14;;;;;;;17.17;10.03;;;;;;;;;;4991985;28;20402;-73
2022/08/30 06:36:20;;;;;;;19.50;8.80;;;;;;;;;;4991669;28;20567;-73
2022/08/30 06:39:24;;;;;;;20.60;9.18;;;;;;;;;;5002840;28;20035;-71
2022/08/30 06:42:30;;;;;;;19.85;8.45;;;;;;;;;;4991958;28;20049;-72
2022/08/30 06:45:35;;;;;;;15.25;8.65;;;;;;;;;;4991841;28;20451;-73
2022/08/30 06:48:39;;;;;;;17.45;8.98;;;;;;;;;;4991871;28;20053;-75
2022/08/30 06:51:43;;;;;;;18.90;8.65;;;;;;;;;;4991634;28;20425;-82
2022/08/30 06:54:49;;;;;;;20.25;9.48;;;;;;;;;;4992144;28;20042;-71
2022/08/30 06:57:53;;;;;;;15.48;9.20;;;;;;;;;;4992377;28;20482;-83
2022/08/30 07:00:58;;;;;;;17.50;9.10;;;;;;;;;;5002713;28;20034;-77
2022/08/30 07:04:02;;;;;;;17.98;9.07;;;;;;;;;;4992164;28;20041;-77
2022/08/30 07:07:06;;;;;;;14.88;8.68;;;;;;;;;;4992282;28;20038;-76
2022/08/30 07:10:10;;;;;;;15.20;8.07;;;;;;;;;;4991406;28;20050;-78
2022/08/30 07:13:16;;;;;;;18.17;8.38;;;;;;;;;;4991827;28;20034;-80
2022/08/30 07:16:20;;;;;;;18.65;7.82;;;;;;;;;;5002642;28;20054;-78
2022/08/30 07:19:24;;;;;;;17.90;8.30;;;;;;;;;;4992044;28;20069;-78
2022/08/30 07:22:29;;;;;;;20.70;7.88;;;;;;;;;;4991250;28;20050;-78
2022/08/30 07:25:33;;;;;;;16.48;7.07;;;;;;;;;;4991115;28;20035;-77
2022/08/30 07:28:38;;;;;;;13.25;7.70;;;;;;;;;;4991692;28;20043;-77
2022/08/30 07:31:43;;;;;;;12.65;7.15;;;;;;;;;;4991996;28;20046;-78
2022/08/30 07:34:47;;;;;;;13.95;8.27;;;;;;;;;;4991666;28;20053;-79
2022/08/30 07:37:51;;;;;;;12.68;6.47;;;;;;;;;;4991912;28;20509;-78
2022/08/30 07:40:59;;;;;;;11.95;5.88;;;;;;;;;;4991552;28;20043;-79
2022/08/30 07:44:04;;;;;;;11.88;6.30;;;;;;;;;;5002093;28;20051;-78
2022/08/30 07:47:09;;;;;;;13.00;6.57;;;;;;;;;;4991652;28;20042;-78
2022/08/30 07:50:13;;;;;;;14.88;5.70;;;;;;;;;;4991742;28;20530;-77
2022/08/30 07:53:18;;;;;;;325.83;24.27;;;;;;;;;;4991403;28;20027;-77
2022/08/30 07:56:23;;;;;;;13.75;6.45;;;;;;;;;;4991778;28;20045;-79
2022/08/30 07:59:27;;;;;;;13.35;5.70;;;;;;;;;;4991717;28;20043;-78
2022/08/30 08:02:32;;;;;;;13.63;6.45;;;;;;;;;;4991458;28;20399;-77
2022/08/30 08:05:40;;;;;;;9.60;5.15;;;;;;;;;;4991286;28;20053;-78
2022/08/30 08:08:44;;;;;;;18.75;8.77;;;;;;;;;;4990951;28;20387;-74
2022/08/30 08:11:48;;;;;;;10.27;4.90;;;;;;;;;;4991440;28;20047;-72
2022/08/30 08:14:53;;;;;;;12.23;4.90;;;;;;;;;;4990905;28;20062;-74
2022/08/30 08:17:57;;;;;;;7.10;4.65;;;;;;;;;;4992626;28;20050;-74
2022/08/30 08:21:02;;;;;;;6.55;3.90;;;;;;;;;;4994628;28;20045;-76
2022/08/30 08:24:09;;;;;;;7.65;4.68;;;;;;;;;;4994870;28;20378;-73
2022/08/30 08:27:13;;;;;;;10.27;6.03;;;;;;;;;;4994684;28;20031;-76
2022/08/30 08:30:21;;;;;;;9.13;5.15;;;;;;;;;;4994836;28;20050;-75
2022/08/30 08:33:26;;;;;;;14.20;5.22;;;;;;;;;;4994441;28;20034;-76
2022/08/30 08:36:32;;;;;;;12.10;5.03;;;;;;;;;;4994429;28;20042;-76
2022/08/30 08:39:36;;;;;;;9.77;4.68;;;;;;;;;;4994340;28;20497;-75
2022/08/30 08:42:46;;;;;;;12.07;5.72;;;;;;;;;;4994500;28;20034;-75
2022/08/30 08:45:55;;;;;;;11.18;5.28;;;;;;;;;;4994387;28;20038;-76
2022/08/30 08:49:02;;;;;;;9.27;4.40;;;;;;;;;;4994262;28;20054;-75
2022/08/30 08:55:31;;;;;;;6.55;4.28;;;;;;;;;;4993947;28;20045;-75
2022/08/30 08:58:46;;;;;;;11.50;5.13;;;;;;;;;;4994089;28;20038;-73
2022/08/30 09:01:50;;;;;;;6.30;4.25;;;;;;;;;;4994030;28;20418;-75
2022/08/30 09:05:00;;;;;;;9.85;4.35;;;;;;;;;;4993424;28;20038;-75
2022/08/30 09:08:05;;;;;;;7.47;4.00;;;;;;;;;;4994166;28;20046;-78
2022/08/30 09:11:15;;;;;;;27.70;5.18;;;;;;;;;;4994364;28;20046;-77
2022/08/30 09:14:22;;;;;;;6.68;3.63;;;;;;;;;;4993088;28;20034;-75
2022/08/30 09:17:28;;;;;;;14.07;3.83;;;;;;;;;;4993744;28;20054;-74
2022/08/30 09:20:37;;;;;;;8.40;3.78;;;;;;;;;;5004326;28;20408;-75
2022/08/30 09:23:49;;;;;;;4.18;3.38;;;;;;;;;;4993643;28;20034;-75
2022/08/30 09:26:53;;;;;;;11.63;4.32;;;;;;;;;;4993564;28;20042;-75
2022/08/30 09:29:59;;;;;;;5.50;3.22;;;;;;;;;;4993823;28;20046;-76
2022/08/30 09:33:18;;;;;;;10.90;3.83;;;;;;;;;;4993453;28;20038;-76
2022/08/30 09:36:25;;;;;;;5.78;3.42;;;;;;;;;;4992993;28;20426;-75
2022/08/30 09:39:31;;;;;;;5.28;3.72;;;;;;;;;;4993427;28;20478;-76
2022/08/30 09:42:36;;;;;;;11.40;3.97;;;;;;;;;;4993347;28;20038;-75
2022/08/30 09:45:41;;;;;;;7.18;3.65;;;;;;;;;;4993402;28;20515;-76
2022/08/30 09:48:46;;;;;;;6.18;3.45;;;;;;;;;;4993669;28;20042;-76
2022/08/30 09:51:54;;;;;;;6.25;3.45;;;;;;;;;;4992870;28;20034;-75
2022/08/30 09:55:05;;;;;;;8.23;3.83;;;;;;;;;;4993061;28;20042;-76
2022/08/30 09:58:09;;;;;;;6.38;4.13;;;;;;;;;;4992719;28;20038;-75
2022/08/30 10:01:23;;;;;;;5.53;3.47;;;;;;;;;;4993418;28;20046;-78
2022/08/30 10:04:42;;;;;;;6.72;3.58;;;;;;;;;;4992786;28;20034;-76
2022/08/30 10:07:49;;;;;;;6.10;3.50;;;;;;;;;;4992879;28;20050;-78
2022/08/30 10:10:57;;;;;;;7.68;3.63;;;;;;;;;;4992821;28;20050;-77
2022/08/30 10:14:18;;;;;;;10.68;3.00;;;;;;;;;;4993112;28;20043;-78
2022/08/30 10:17:22;;;;;;;;;;;;;;;;;;4993135;28;20050;-77
2022/08/30 10:20:36;;;;;;;9.32;3.47;;;;;;;;;;4992633;28;19916;-76
2022/08/30 10:23:49;;;;;;;13.55;3.42;;;;;;;;;;5003228;28;20038;-76
2022/08/30 10:27:01;;;;;;;9.57;3.55;;;;;;;;;;4992463;28;20505;-74
2022/08/30 10:30:07;;;;;;;9.13;3.80;;;;;;;;;;4992484;28;20490;-77
2022/08/30 10:33:14;;;;;;;10.98;3.90;;;;;;;;;;4992534;28;20035;-76
2022/08/30 10:36:21;;;;;;;9.18;3.42;;;;;;;;;;4992695;28;20065;-75
2022/08/30 10:39:28;;;;;;;7.50;3.53;;;;;;;;;;4991811;28;20356;-75
2022/08/30 10:42:34;;;;;;;7.93;3.65;;;;;;;;;;4992466;28;20038;-77
2022/08/30 10:45:40;;;;;;;7.82;3.70;;;;;;;;;;4980295;28;20367;-75
2022/08/30 10:48:44;;;;;;;6.90;3.20;;;;;;;;;;4992099;28;20042;-75
2022/08/30 10:52:04;;;;;;;5.93;2.97;;;;;;;;;;4991324;28;20034;-75
2022/08/30 10:55:26;;;;;;;5.30;2.75;;;;;;;;;;4991755;28;20038;-75
2022/08/30 10:58:31;;;;;;;6.97;4.68;;;;;;;;;;4991619;28;20043;-76
2022/08/30 11:01:51;;;;;;;4.50;3.30;;;;;;;;;;4991946;28;20046;-76
2022/08/30 11:05:04;;;;;;;4.05;2.78;;;;;;;;;;4991791;28;20485;-75
2022/08/30 11:08:17;;;;;;;7.70;2.58;;;;;;;;;;4991207;28;20034;-75
2022/08/30 11:11:32;;;;;;;3.92;2.80;;;;;;;;;;4992312;28;20482;-75
2022/08/30 11:14:42;;;;;;;5.97;2.25;;;;;;;;;;4992148;28;20043;-77
2022/08/30 11:17:46;;;;;;;4.57;3.00;;;;;;;;;;4991998;28;20046;-75
2022/08/30 11:20:52;;;;;;;5.80;2.90;;;;;;;;;;4991915;28;20386;-75
2022/08/30 11:24:06;;;;;;;5.35;2.72;;;;;;;;;;4992254;28;20043;-75
2022/08/30 11:27:31;;;;;;;7.68;3.28;;;;;;;;;;4991857;28;20034;-75
2022/08/30 11:30:37;;;;;;;5.90;2.67;;;;;;;;;;5002254;28;20039;-75
2022/08/30 11:33:45;;;;;;;4.90;3.17;;;;;;;;;;4991799;28;20038;-76
2022/08/30 11:36:52;;;;;;;5.90;3.25;;;;;;;;;;4993935;28;20467;-76
2022/08/30 11:39:58;;;;;;;4.85;3.10;;;;;;;;;;4994100;28;20064;-76
2022/08/30 11:43:23;;;;;;;6.80;3.28;;;;;;;;;;4999208;28;20038;-76
2022/08/30 11:46:27;;;;;;;5.53;3.28;;;;;;;;;;5003539;28;20038;-75
2022/08/30 11:49:34;;;;;;;6.93;3.90;;;;;;;;;;5004867;28;20046;-75
2022/08/30 11:52:42;;;;;;;6.28;3.33;;;;;;;;;;5005512;28;20038;-75
2022/08/30 11:56:11;;;;;;;9.25;3.65;;;;;;;;;;5007140;28;20046;-74
2022/08/30 11:59:22;;;;;;;10.82;3.50;;;;;;;;;;4996724;28;20027;-74
2022/08/30 12:02:39;;;;;;;6.25;3.47;;;;;;;;;;4993886;28;20049;-75
2022/08/30 12:05:50;;;;;;;8.32;3.63;;;;;;;;;;4995201;28;20030;-76
2022/08/30 12:08:54;;;;;;;3.88;2.75;;;;;;;;;;5005989;28;20375;-75
2022/08/30 12:11:58;;;;;;;3.20;2.50;;;;;;;;;;4995760;28;20042;-78
2022/08/30 12:15:03;;;;;;;7.13;2.70;;;;;;;;;;4995403;28;20042;-75
2022/08/30 12:18:27;;;;;;;5.10;2.40;;;;;;;;;;4994240;28;20050;-77
2022/08/30 12:21:32;;;;;;;10.27;4.25;;;;;;;;;;4995195;28;20514;-80
2022/08/30 12:24:42;;;;;;;8.48;3.53;;;;;;;;;;4994766;28;20433;-75
2022/08/30 12:27:47;;;;;;;6.75;3.17;;;;;;;;;;4994651;28;20042;-75
2022/08/30 12:30:52;;;;;;;8.55;2.78;;;;;;;;;;4995094;28;20084;-76
2022/08/30 12:33:58;;;;;;;4.10;2.65;;;;;;;;;;4994920;28;20405;-75
2022/08/30 12:37:06;;;;;;;6.32;2.60;;;;;;;;;;4994519;28;20114;-77
2022/08/30 12:40:14;;;;;;;5.45;2.60;;;;;;;;;;4993487;28;20035;-75
2022/08/30 12:43:30;;;;;;;6.28;2.70;;;;;;;;;;4994219;28;20608;-74
2022/08/30 12:46:34;;;;;;;6.38;2.88;;;;;;;;;;4994719;28;20034;-73
2022/08/30 12:49:39;;;;;;;4.00;2.47;;;;;;;;;;4994619;28;20466;-74
2022/08/30 12:52:54;;;;;;;5.82;2.83;;;;;;;;;;4994428;28;20031;-73
2022/08/30 12:56:07;;;;;;;6.20;2.70;;;;;;;;;;4994266;28;20039;-75
2022/08/30 12:59:31;;;;;;;7.13;3.67;;;;;;;;;;4994332;28;20054;-71
2022/08/30 13:02:45;;;;;;;8.88;5.05;;;;;;;;;;4993264;28;20034;-71
2022/08/30 13:05:50;;;;;;;7.63;4.50;;;;;;;;;;4993834;28;20038;-71
2022/08/30 13:08:55;;;;;;;13.85;4.85;;;;;;;;;;4992717;28;20046;-74
2022/08/30 13:12:04;;;;;;;8.82;4.70;;;;;;;;;;4993772;28;20042;-70
2022/08/30 13:15:15;;;;;;;11.07;4.30;;;;;;;;;;4993466;28;20034;-71
2022/08/30 13:18:26;;;;;;;12.70;5.00;;;;;;;;;;4993355;28;20046;-72
2022/08/30 13:21:32;;;;;;;8.45;4.20;;;;;;;;;;4993384;28;20042;-75
2022/08/30 13:24:36;;;;;;;40.67;7.78;;;;;;;;;;4993191;28;20387;-80
2022/08/30 13:27:41;;;;;;;11.10;4.57;;;;;;;;;;4993257;28;20035;-74
2022/08/30 13:30:45;;;;;;;17.27;5.20;;;;;;;;;;4992276;28;20049;-73
2022/08/30 13:33:51;;;;;;;18.15;4.55;;;;;;;;;;4993353;28;20031;-73
2022/08/30 13:36:57;;;;;;;12.73;4.50;;;;;;;;;;4993308;28;20038;-74
2022/08/30 13:40:01;;;;;;;14.82;5.93;;;;;;;;;;4993098;28;20043;-72
2022/08/30 13:43:06;;;;;;;11.18;4.60;;;;;;;;;;4993175;28;20038;-78
2022/08/30 13:46:11;;;;;;;21.80;5.68;;;;;;;;;;4993077;28;20038;-80
2022/08/30 13:49:46;;;;;;;13.20;4.40;;;;;;;;;;4992402;28;20046;-79
2022/08/30 13:52:50;;;;;;;9.63;4.88;;;;;;;;;;4992437;28;20046;-81
2022/08/30 13:55:55;;;;;;;18.33;5.25;;;;;;;;;;4992968;28;20046;-80
2022/08/30 13:58:59;;;;;;;14.30;4.90;;;;;;;;;;4992683;28;20310;-79
2022/08/30 14:02:04;;;;;;;9.57;4.40;;;;;;;;;;4992594;28;20042;-79
2022/08/30 14:05:08;;;;;;;21.55;5.28;;;;;;;;;;4991234;28;20042;-83
2022/08/30 14:08:14;;;;;;;13.65;4.47;;;;;;;;;;4991960;28;20042;-83
2022/08/30 14:11:19;;;;;;;12.80;3.75;;;;;;;;;;4991655;28;20054;-80
2022/08/30 14:14:23;;;;;;;10.40;3.92;;;;;;;;;;4991629;28;20030;-80
2022/08/30 14:17:29;;;;;;;10.73;3.92;;;;;;;;;;4991494;28;20514;-79
2022/08/30 14:20:34;;;;;;;9.18;4.10;;;;;;;;;;4992536;28;20043;-84
2022/08/30 14:23:38;;;;;;;25.05;6.38;;;;;;;;;;5003447;28;20038;-82
2022/08/30 14:26:46;;;;;;;9.15;4.00;;;;;;;;;;4991368;28;20057;-80
2022/08/30 14:29:50;;;;;;;7.28;3.95;;;;;;;;;;4991619;28;20046;-81
2022/08/30 14:32:54;;;;;;;10.50;4.13;;;;;;;;;;4992448;28;20034;-80
2022/08/30 14:35:58;;;;;;;9.85;4.03;;;;;;;;;;5002837;28;20042;-80
2022/08/30 14:39:05;;;;;;;15.77;5.13;;;;;;;;;;4992571;28;20488;-82
2022/08/30 14:42:11;;;;;;;13.65;4.47;;;;;;;;;;4992442;28;20045;-83
2022/08/30 14:45:16;;;;;;;13.88;3.83;;;;;;;;;;4992177;28;20058;-80
2022/08/30 14:48:21;;;;;;;11.77;3.72;;;;;;;;;;4992280;28;20049;-80
2022/08/30 14:51:25;;;;;;;14.32;4.63;;;;;;;;;;4992425;28;20041;-79
2022/08/30 14:54:30;;;;;;;10.77;3.90;;;;;;;;;;4991963;28;20041;-81
2022/08/30 14:57:35;;;;;;;8.75;3.97;;;;;;;;;;4991975;28;20038;-83
2022/08/30 15:00:39;;;;;;;9.88;3.63;;;;;;;;;;4992274;28;20038;-80
2022/08/30 15:03:44;;;;;;;17.00;4.55;;;;;;;;;;4991818;28;20046;-81
2022/08/30 15:06:49;;;;;;;6.32;3.90;;;;;;;;;;4992106;28;20038;-82
2022/08/30 15:09:53;;;;;;;5.75;3.50;;;;;;;;;;4991755;28;20055;-80
2022/08/30 15:12:57;;;;;;;6.68;3.42;;;;;;;;;;4991752;28;20038;-80
2022/08/30 15:16:02;;;;;;;5.32;3.33;;;;;;;;;;4991725;28;20050;-80
2022/08/30 15:19:08;;;;;;;11.52;4.10;;;;;;;;;;4991753;28;20387;-78
2022/08/30 15:22:12;;;;;;;6.68;3.63;;;;;;;;;;4991259;28;20034;-76
2022/08/30 15:25:16;;;;;;;13.10;4.57;;;;;;;;;;4991552;28;20046;-72
2022/08/30 15:28:21;;;;;;;6.40;3.92;;;;;;;;;;4995664;28;20086;-82
2022/08/30 15:31:27;;;;;;;8.63;3.30;;;;;;;;;;4995097;28;20046;-81
2022/08/30 15:34:32;;;;;;;9.68;3.00;;;;;;;;;;4995386;28;20506;-77
2022/08/30 15:37:37;;;;;;;4.93;3.08;;;;;;;;;;4995661;28;20042;-76
2022/08/30 15:40:43;;;;;;;9.88;3.85;;;;;;;;;;4995597;28;20042;-73
2022/08/30 15:43:47;;;;;;;10.73;3.38;;;;;;;;;;4995547;28;20038;-72
2022/08/30 15:46:51;;;;;;;8.13;3.40;;;;;;;;;;4995161;28;20627;-74
2022/08/30 15:49:57;;;;;;;4.63;3.30;;;;;;;;;;5005577;28;20050;-72
2022/08/30 15:53:02;;;;;;;9.15;3.42;;;;;;;;;;4994964;28;20470;-75
2022/08/30 15:56:06;;;;;;;10.48;3.80;;;;;;;;;;4994927;28;20026;-75
2022/08/30 15:59:13;;;;;;;8.73;3.25;;;;;;;;;;4995269;28;20038;-77
2022/08/30 16:02:18;;;;;;;9.80;3.60;;;;;;;;;;4994814;28;20038;-71
2022/08/30 16:05:22;;;;;;;8.20;3.60;;;;;;;;;;4994957;28;20038;-72
2022/08/30 16:08:27;;;;;;;8.68;3.22;;;;;;;;;;4994968;28;20031;-73
2022/08/30 16:11:32;;;;;;;15.65;3.65;;;;;;;;;;4995197;28;20050;-76
2022/08/30 16:14:36;;;;;;;6.20;3.03;;;;;;;;;;4994492;28;20467;-75
2022/08/30 16:17:41;;;;;;;4.05;2.65;;;;;;;;;;4994231;28;20383;-70
2022/08/30 16:20:45;;;;;;;7.97;2.88;;;;;;;;;;4994887;28;20035;-72
2022/08/30 16:23:50;;;;;;;3.42;2.35;;;;;;;;;;4994272;28;20038;-73
2022/08/30 16:26:54;;;;;;;5.43;3.38;;;;;;;;;;4994568;28;20034;-72
2022/08/30 16:29:58;;;;;;;7.55;3.40;;;;;;;;;;4994318;28;20046;-70
2022/08/30 16:33:04;;;;;;;5.68;2.85;;;;;;;;;;4994363;28;20039;-70
2022/08/30 16:36:09;;;;;;;9.85;3.20;;;;;;;;;;4994447;28;20046;-72
2022/08/30 16:39:13;;;;;;;9.10;3.45;;;;;;;;;;5002858;28;20046;-72
2022/08/30 16:42:17;;;;;;;5.97;3.33;;;;;;;;;;4992947;28;20042;-73
2022/08/30 16:45:22;;;;;;;6.35;3.50;;;;;;;;;;4993149;28;20193;-72
2022/08/30 16:48:27;;;;;;;6.63;3.30;;;;;;;;;;4992877;28;20050;-72
2022/08/30 16:51:32;;;;;;;15.85;3.70;;;;;;;;;;4993404;28;20486;-72
2022/08/30 16:54:37;;;;;;;15.90;4.22;;;;;;;;;;4992437;28;20049;-72
2022/08/30 16:57:41;;;;;;;10.82;3.35;;;;;;;;;;4993821;28;20041;-72
2022/08/30 17:00:49;;;;;;;9.10;3.67;;;;;;;;;;4993771;28;20030;-73
2022/08/30 17:03:53;;;;;;;11.85;4.25;;;;;;;;;;4993605;28;20042;-72
2022/08/30 17:06:58;;;;;;;7.43;4.00;;;;;;;;;;4993503;28;20038;-72
2022/08/30 17:10:03;;;;;;;12.10;4.65;;;;;;;;;;4993653;28;20042;-72
2022/08/30 17:13:08;;;;;;;6.78;3.92;;;;;;;;;;5004183;28;20049;-73
2022/08/30 17:16:13;;;;;;;8.73;4.00;;;;;;;;;;4993703;28;20042;-72
2022/08/30 17:19:17;;;;;;;10.60;4.10;;;;;;;;;;4993721;28;20050;-73
2022/08/30 17:22:22;;;;;;;18.00;4.38;;;;;;;;;;4993477;28;20038;-72
2022/08/30 17:25:26;;;;;;;7.25;3.33;;;;;;;;;;4993171;28;20038;-73
2022/08/30 17:28:31;;;;;;;10.13;3.83;;;;;;;;;;4993387;28;20035;-73
2022/08/30 17:31:35;;;;;;;17.40;4.35;;;;;;;;;;4992779;28;20415;-72
2022/08/30 17:34:39;;;;;;;12.88;4.70;;;;;;;;;;4992908;28;20051;-72
2022/08/30 17:37:44;;;;;;;8.27;4.85;;;;;;;;;;4991212;28;20030;-72
2022/08/30 17:40:48;;;;;;;11.73;4.88;;;;;;;;;;4993052;28;20038;-73
2022/08/30 17:43:52;;;;;;;12.85;5.00;;;;;;;;;;4991788;28;20043;-73
2022/08/30 17:46:57;;;;;;;8.32;4.35;;;;;;;;;;4992749;28;20061;-73
2022/08/30 17:50:02;;;;;;;11.15;4.90;;;;;;;;;;4992076;28;20054;-72
2022/08/30 17:53:06;;;;;;;11.20;5.53;;;;;;;;;;5003141;28;20038;-72
2022/08/30 17:56:11;;;;;;;13.68;5.50;;;;;;;;;;4992688;28;20042;-72
2022/08/30 17:59:16;;;;;;;10.82;4.80;;;;;;;;;;5003150;28;20049;-73
2022/08/30 18:02:20;;;;;;;9.80;4.25;;;;;;;;;;4992949;28;20042;-73
2022/08/30 18:05:24;;;;;;;13.75;4.28;;;;;;;;;;4991411;28;20482;-72
2022/08/30 18:08:29;;;;;;;16.15;4.80;;;;;;;;;;4992444;28;20026;-72
2022/08/30 18:11:34;;;;;;;7.97;3.95;;;;;;;;;;4992392;28;20050;-72
2022/08/30 18:14:40;;;;;;;10.88;4.53;;;;;;;;;;4992499;28;20042;-72
2022/08/30 18:17:46;;;;;;;11.63;5.30;;;;;;;;;;4992225;28;20061;-72
2022/08/30 18:20:50;;;;;;;19.08;5.60;;;;;;;;;;4991353;28;20050;-73
2022/08/30 18:23:55;;;;;;;16.17;6.28;;;;;;;;;;4992298;28;20065;-72
2022/08/30 18:27:00;;;;;;;15.77;9.43;;;;;;;;;;4991356;28;20050;-73
2022/08/30 18:30:05;;;;;;;11.73;4.53;;;;;;;;;;4991571;28;20054;-73